メインページ
METAR-TAF:

METAR-TAF

空港 :

チャーチル, マニトバ州, カナダ

緯度: 58-44N, 経度: 094-04W, 海抜: 28m

現時点の気象観測

当レポートは1時間2分前の19:00(UTC)に作成
南西の風 11kt、最大21ktの突風を伴う
気温 8°C
湿度 49%
気圧 1014 hPa
視程: 24.1km
高度3000ftの雲はほとんどない
高度25000ftの雲はほとんどない

METAR: CYYQ 181900Z 23011G21KT 15SM FEW030 FEW250 08/M02 A2993 RMK CF1CI1 CF TR SLP137

時間: 15:02 (20:02 UTC)

予報

当レポートは2時間24分前の17:38(UTC)に作成
予報は18日の 18時(UTC)から 19日の 18時(UTC)まで有効
南西の風 15kt、最大25ktの突風を伴う
視程: 10km
高度4000ftの雲はほとんどない
18日の 2200時(UTC)から
西/南西の風 15kt、最大25ktの突風を伴う
視程: 10km
高度2000ftの雲は散在している
高度4000ftの曇り
小雨
18日の 22時(UTC)から 19日の 04時(UTC)まで一時的に
視程: 6.4km
高度2000ftの曇り
小雨, 靄
19日の 00時(UTC)から 19日の 02時(UTC)まで徐々に
の風 15kt、最大25ktの突風を伴う
19日の 0400時(UTC)から
の風 10kt、最大20ktの突風を伴う
視程: 10km
高度2500ftの雲は散在している
19日の 10時(UTC)から 19日の 12時(UTC)まで徐々に
西/北西の風 12kt

TAF: CYYQ 181738Z 1818/1918 23015G25KT P6SM FEW040 FM182200 24015G25KT P6SM -RA SCT020 OVC040 TEMPO 1822/1904 4SM -RA BR OVC020 BECMG 1900/1902 35015G25KT FM190400 35010G20KT P6SM SCT025 BECMG 1910/1912 29012KT RMK NXT FCST BY 190000Z

4,000以上の空港の気象観測と天気予報(METAR報とTAF報)

利用可能な観測所は地図上に黄色い丸と赤い丸で示す。

丸の上にカーソルを重ねると観測所名を参照できる。

次にクリックすると気象観測と天気予報を参照できる。

マップの切り替え:黒色「×」印の緑ボタンをクリックして拡大、「-」印の緑ボタンをクリックして縮小、緑色の三角印をクリックして隣りの地図に切り替え


METAR-TAF: